Time,TemperatureF,DewpointF,PressureIn,WindDirection,WindDirectionDegrees,WindSpeedMPH,WindSpeedGustMPH,Humidity,HourlyPrecipIn,Conditions,Clouds,dailyrainin,SoftwareType,DateUTC
2013-03-13 00:02:00,26.0,17.0,-100.00,WSW,240,7.0,14.0,67,-99.99,,,-99.99,,2013-03-13 05:02:00,
2013-03-13 00:32:00,27.0,15.0,-100.00,West,270,12.0,20.0,63,-99.99,,,-99.99,,2013-03-13 05:32:00,
2013-03-13 00:42:00,27.0,15.0,-100.00,West,270,12.0,20.0,63,-99.99,,,-99.99,,2013-03-13 05:42:00,
2013-03-13 00:52:00,27.0,15.0,-100.00,West,270,12.0,20.0,63,-99.99,,,-99.99,,2013-03-13 05:52:00,
2013-03-13 01:02:00,27.0,15.0,-100.00,West,270,12.0,20.0,63,-99.99,,,-99.99,,2013-03-13 06:02:00,
2013-03-13 01:12:00,27.0,15.0,-100.00,West,270,12.0,20.0,63,-99.99,,,-99.99,,2013-03-13 06:12:00,
2013-03-13 01:33:00,24.0,11.0,-100.00,WNW,285,9.0,17.0,59,-99.99,,,-99.99,,2013-03-13 06:33:00,
2013-03-13 01:42:00,24.0,11.0,-100.00,WNW,285,9.0,17.0,59,-99.99,,,-99.99,,2013-03-13 06:42:00,
2013-03-13 01:52:00,24.0,11.0,-100.00,WNW,285,9.0,17.0,59,-99.99,,,-99.99,,2013-03-13 06:52:00,
2013-03-13 02:02:00,24.0,11.0,-100.00,WNW,285,9.0,17.0,59,-99.99,,,-99.99,,2013-03-13 07:02:00,
2013-03-13 02:12:00,23.0,9.0,-100.00,West,275,13.0,20.0,54,-99.99,,,-99.99,,2013-03-13 07:12:00,
2013-03-13 02:33:00,23.0,9.0,-100.00,West,275,13.0,20.0,54,-99.99,,,-99.99,,2013-03-13 07:33:00,
2013-03-13 02:43:00,23.0,9.0,-100.00,West,275,13.0,20.0,54,-99.99,,,-99.99,,2013-03-13 07:43:00,
2013-03-13 02:53:00,23.0,9.0,-100.00,West,275,13.0,20.0,54,-99.99,,,-99.99,,2013-03-13 07:53:00,
2013-03-13 03:03:00,23.0,9.0,-100.00,West,275,13.0,20.0,54,-99.99,,,-99.99,,2013-03-13 08:03:00,
2013-03-13 04:32:00,21.0,11.0,-100.00,West,260,10.0,19.0,64,-99.99,,,-99.99,,2013-03-13 09:32:00,
2013-03-13 04:42:00,21.0,11.0,-100.00,West,260,10.0,19.0,64,-99.99,,,-99.99,,2013-03-13 09:42:00,
2013-03-13 04:52:00,21.0,11.0,-100.00,West,260,10.0,19.0,64,-99.99,,,-99.99,,2013-03-13 09:52:00,
2013-03-13 05:02:00,21.0,11.0,-100.00,West,260,10.0,19.0,64,-99.99,,,-99.99,,2013-03-13 10:02:00,
2013-03-13 05:12:00,21.0,11.0,-100.00,West,260,10.0,19.0,64,-99.99,,,-99.99,,2013-03-13 10:12:00,
2013-03-13 05:32:00,21.0,11.0,-100.00,West,270,10.0,17.0,67,-99.99,,,-99.99,,2013-03-13 10:32:00,
2013-03-13 05:42:00,21.0,11.0,-100.00,West,270,10.0,17.0,67,-99.99,,,-99.99,,2013-03-13 10:42:00,
2013-03-13 05:52:00,21.0,11.0,-100.00,West,270,10.0,17.0,67,-99.99,,,-99.99,,2013-03-13 10:52:00,
2013-03-13 06:02:00,21.0,11.0,-100.00,West,270,10.0,17.0,67,-99.99,,,-99.99,,2013-03-13 11:02:00,
2013-03-13 06:12:00,21.0,11.0,-100.00,West,270,10.0,17.0,67,-99.99,,,-99.99,,2013-03-13 11:12:00,
2013-03-13 06:32:00,20.0,11.0,-100.00,WSW,255,9.0,18.0,69,-99.99,,,-99.99,,2013-03-13 11:32:00,
2013-03-13 06:42:00,20.0,11.0,-100.00,WSW,255,9.0,18.0,69,-99.99,,,-99.99,,2013-03-13 11:42:00,
2013-03-13 06:52:00,20.0,11.0,-100.00,WSW,255,9.0,18.0,69,-99.99,,,-99.99,,2013-03-13 11:52:00,
2013-03-13 07:02:00,20.0,11.0,-100.00,WSW,255,9.0,18.0,69,-99.99,,,-99.99,,2013-03-13 12:02:00,
2013-03-13 07:32:00,20.0,12.0,-100.00,West,260,8.0,17.0,71,-99.99,,,-99.99,,2013-03-13 12:32:00,
2013-03-13 07:42:00,20.0,12.0,-100.00,West,260,8.0,17.0,71,-99.99,,,-99.99,,2013-03-13 12:42:00,
2013-03-13 07:53:00,20.0,12.0,-100.00,West,260,8.0,17.0,71,-99.99,,,-99.99,,2013-03-13 12:53:00,
2013-03-13 08:02:00,20.0,12.0,-100.00,West,260,8.0,17.0,71,-99.99,,,-99.99,,2013-03-13 13:02:00,
2013-03-13 08:11:00,20.0,12.0,-100.00,West,260,8.0,17.0,71,-99.99,,,-99.99,,2013-03-13 13:11:00,
2013-03-13 08:33:00,22.0,12.0,-100.00,West,265,11.0,22.0,65,-99.99,,,-99.99,,2013-03-13 13:33:00,
2013-03-13 08:43:00,22.0,12.0,-100.00,West,265,11.0,22.0,65,-99.99,,,-99.99,,2013-03-13 13:43:00,
2013-03-13 08:52:00,22.0,12.0,-100.00,West,265,11.0,22.0,65,-99.99,,,-99.99,,2013-03-13 13:52:00,
2013-03-13 09:02:00,22.0,12.0,-100.00,West,265,11.0,22.0,65,-99.99,,,-99.99,,2013-03-13 14:02:00,
2013-03-13 09:34:00,24.0,11.0,-100.00,WSW,255,10.0,19.0,58,-99.99,,,-99.99,,2013-03-13 14:34:00,
2013-03-13 09:42:00,24.0,11.0,-100.00,WSW,255,10.0,19.0,58,-99.99,,,-99.99,,2013-03-13 14:42:00,
2013-03-13 09:53:00,24.0,11.0,-100.00,WSW,255,10.0,19.0,58,-99.99,,,-99.99,,2013-03-13 14:53:00,
2013-03-13 10:03:00,24.0,11.0,-100.00,WSW,255,10.0,19.0,58,-99.99,,,-99.99,,2013-03-13 15:03:00,
2013-03-13 10:11:00,25.0,9.0,-100.00,West,270,11.0,22.0,52,-99.99,,,-99.99,,2013-03-13 15:11:00,
2013-03-13 10:32:00,25.0,9.0,-100.00,West,270,11.0,22.0,52,-99.99,,,-99.99,,2013-03-13 15:32:00,
2013-03-13 10:43:00,25.0,9.0,-100.00,West,270,11.0,22.0,52,-99.99,,,-99.99,,2013-03-13 15:43:00,
2013-03-13 10:52:00,25.0,9.0,-100.00,West,270,11.0,22.0,52,-99.99,,,-99.99,,2013-03-13 15:52:00,
2013-03-13 11:02:00,25.0,9.0,-100.00,West,270,11.0,22.0,52,-99.99,,,-99.99,,2013-03-13 16:02:00,
2013-03-13 11:11:00,26.0,8.0,-100.00,West,260,12.0,23.0,46,-99.99,,,-99.99,,2013-03-13 16:11:00,
2013-03-13 11:33:00,26.0,8.0,-100.00,West,260,12.0,23.0,46,-99.99,,,-99.99,,2013-03-13 16:33:00,
2013-03-13 11:42:00,26.0,8.0,-100.00,West,260,12.0,23.0,46,-99.99,,,-99.99,,2013-03-13 16:42:00,
2013-03-13 11:52:00,26.0,8.0,-100.00,West,260,12.0,23.0,46,-99.99,,,-99.99,,2013-03-13 16:52:00,
2013-03-13 12:02:00,26.0,8.0,-100.00,West,260,12.0,23.0,46,-99.99,,,-99.99,,2013-03-13 17:02:00,
2013-03-13 12:10:00,28.0,7.0,-100.00,West,260,12.0,22.0,42,-99.99,,,-99.99,,2013-03-13 17:10:00,
2013-03-13 12:33:00,28.0,7.0,-100.00,West,260,12.0,22.0,42,-99.99,,,-99.99,,2013-03-13 17:33:00,
2013-03-13 12:42:00,28.0,7.0,-100.00,West,260,12.0,22.0,42,-99.99,,,-99.99,,2013-03-13 17:42:00,
2013-03-13 12:53:00,28.0,7.0,-100.00,West,260,12.0,22.0,42,-99.99,,,-99.99,,2013-03-13 17:53:00,
2013-03-13 13:02:00,28.0,7.0,-100.00,West,260,12.0,22.0,42,-99.99,,,-99.99,,2013-03-13 18:02:00,
2013-03-13 13:11:00,30.0,5.0,-100.00,West,270,12.0,19.0,34,-99.99,,,-99.99,,2013-03-13 18:11:00,
2013-03-13 13:33:00,30.0,5.0,-100.00,West,270,12.0,19.0,34,-99.99,,,-99.99,,2013-03-13 18:33:00,
2013-03-13 13:43:00,30.0,5.0,-100.00,West,270,12.0,19.0,34,-99.99,,,-99.99,,2013-03-13 18:43:00,
2013-03-13 13:52:00,30.0,5.0,-100.00,West,270,12.0,19.0,34,-99.99,,,-99.99,,2013-03-13 18:52:00,
2013-03-13 14:02:00,30.0,5.0,-100.00,West,270,12.0,19.0,34,-99.99,,,-99.99,,2013-03-13 19:02:00,
2013-03-13 14:10:00,30.0,3.0,-100.00,WSW,240,11.0,17.0,32,-99.99,,,-99.99,,2013-03-13 19:10:00,
2013-03-13 14:32:00,30.0,3.0,-100.00,WSW,240,11.0,17.0,32,-99.99,,,-99.99,,2013-03-13 19:32:00,
2013-03-13 14:43:00,30.0,3.0,-100.00,WSW,240,11.0,17.0,32,-99.99,,,-99.99,,2013-03-13 19:43:00,
2013-03-13 14:53:00,30.0,3.0,-100.00,WSW,240,11.0,17.0,32,-99.99,,,-99.99,,2013-03-13 19:53:00,
2013-03-13 15:02:00,30.0,3.0,-100.00,WSW,240,11.0,17.0,32,-99.99,,,-99.99,,2013-03-13 20:02:00,
2013-03-13 15:32:00,31.0,3.0,-100.00,West,265,12.0,21.0,30,-99.99,,,-99.99,,2013-03-13 20:32:00,
2013-03-13 15:42:00,31.0,3.0,-100.00,West,265,12.0,21.0,30,-99.99,,,-99.99,,2013-03-13 20:42:00,
2013-03-13 15:52:00,31.0,3.0,-100.00,West,265,12.0,21.0,30,-99.99,,,-99.99,,2013-03-13 20:52:00,
2013-03-13 16:02:00,31.0,3.0,-100.00,West,265,12.0,21.0,30,-99.99,,,-99.99,,2013-03-13 21:02:00,
2013-03-13 16:10:00,32.0,3.0,-100.00,West,270,13.0,20.0,29,-99.99,,,-99.99,,2013-03-13 21:10:00,
2013-03-13 16:34:00,32.0,3.0,-100.00,West,270,13.0,20.0,29,-99.99,,,-99.99,,2013-03-13 21:34:00,
2013-03-13 16:42:00,32.0,3.0,-100.00,West,270,13.0,20.0,29,-99.99,,,-99.99,,2013-03-13 21:42:00,
2013-03-13 16:52:00,32.0,3.0,-100.00,West,270,13.0,20.0,29,-99.99,,,-99.99,,2013-03-13 21:52:00,
2013-03-13 17:02:00,32.0,3.0,-100.00,West,270,13.0,20.0,29,-99.99,,,-99.99,,2013-03-13 22:02:00,
2013-03-13 17:10:00,32.0,2.0,-100.00,WSW,250,9.0,19.0,28,-99.99,,,-99.99,,2013-03-13 22:10:00,
2013-03-13 17:32:00,32.0,2.0,-100.00,WSW,250,9.0,19.0,28,-99.99,,,-99.99,,2013-03-13 22:32:00,
2013-03-13 17:42:00,32.0,2.0,-100.00,WSW,250,9.0,19.0,28,-99.99,,,-99.99,,2013-03-13 22:42:00,
2013-03-13 17:52:00,32.0,2.0,-100.00,WSW,250,9.0,19.0,28,-99.99,,,-99.99,,2013-03-13 22:52:00,
2013-03-13 18:02:00,32.0,2.0,-100.00,WSW,250,9.0,19.0,28,-99.99,,,-99.99,,2013-03-13 23:02:00,
2013-03-13 18:11:00,31.0,1.0,-100.00,SW,225,9.0,16.0,28,-99.99,,,-99.99,,2013-03-13 23:11:00,
2013-03-13 18:32:00,31.0,1.0,-100.00,SW,225,9.0,16.0,28,-99.99,,,-99.99,,2013-03-13 23:32:00,
2013-03-13 18:43:00,31.0,1.0,-100.00,SW,225,9.0,16.0,28,-99.99,,,-99.99,,2013-03-13 23:43:00,
2013-03-13 18:52:00,31.0,1.0,-100.00,SW,225,9.0,16.0,28,-99.99,,,-99.99,,2013-03-13 23:52:00,
2013-03-13 19:02:00,31.0,1.0,-100.00,SW,225,9.0,16.0,28,-99.99,,,-99.99,,2013-03-14 00:02:00,
2013-03-13 19:10:00,28.0,2.0,-100.00,SSW,210,2.0,8.0,32,-99.99,,,-99.99,,2013-03-14 00:10:00,
2013-03-13 19:33:00,28.0,2.0,-100.00,SSW,210,2.0,8.0,32,-99.99,,,-99.99,,2013-03-14 00:33:00,
2013-03-13 19:42:00,28.0,2.0,-100.00,SSW,210,2.0,8.0,32,-99.99,,,-99.99,,2013-03-14 00:42:00,
2013-03-13 19:52:00,28.0,2.0,-100.00,SSW,210,2.0,8.0,32,-99.99,,,-99.99,,2013-03-14 00:52:00,
2013-03-13 20:02:00,28.0,2.0,-100.00,SSW,210,2.0,8.0,32,-99.99,,,-99.99,,2013-03-14 01:02:00,
2013-03-13 20:11:00,26.0,4.0,-100.00,South,185,1.0,6.0,39,-99.99,,,-99.99,,2013-03-14 01:11:00,
2013-03-13 20:32:00,26.0,4.0,-100.00,South,185,1.0,6.0,39,-99.99,,,-99.99,,2013-03-14 01:32:00,
2013-03-13 20:42:00,26.0,4.0,-100.00,South,185,1.0,6.0,39,-99.99,,,-99.99,,2013-03-14 01:42:00,
2013-03-13 20:53:00,26.0,4.0,-100.00,South,185,1.0,6.0,39,-99.99,,,-99.99,,2013-03-14 01:53:00,
2013-03-13 21:02:00,26.0,4.0,-100.00,South,185,1.0,6.0,39,-99.99,,,-99.99,,2013-03-14 02:02:00,
2013-03-13 21:10:00,26.0,4.0,-100.00,SSW,205,6.0,11.0,38,-99.99,,,-99.99,,2013-03-14 02:10:00,
2013-03-13 21:33:00,26.0,4.0,-100.00,SSW,205,6.0,11.0,38,-99.99,,,-99.99,,2013-03-14 02:33:00,
2013-03-13 21:42:00,26.0,4.0,-100.00,SSW,205,6.0,11.0,38,-99.99,,,-99.99,,2013-03-14 02:42:00,
2013-03-13 21:52:00,26.0,4.0,-100.00,SSW,205,6.0,11.0,38,-99.99,,,-99.99,,2013-03-14 02:52:00,
2013-03-13 22:02:00,26.0,4.0,-100.00,SSW,205,6.0,11.0,38,-99.99,,,-99.99,,2013-03-14 03:02:00,
2013-03-13 22:33:00,25.0,3.0,-100.00,WSW,250,4.0,7.0,39,-99.99,,,-99.99,,2013-03-14 03:33:00,
2013-03-13 22:42:00,25.0,3.0,-100.00,WSW,250,4.0,7.0,39,-99.99,,,-99.99,,2013-03-14 03:42:00,
2013-03-13 22:53:00,25.0,3.0,-100.00,WSW,250,4.0,7.0,39,-99.99,,,-99.99,,2013-03-14 03:53:00,
2013-03-13 23:11:00,24.0,4.0,-100.00,SW,230,6.0,9.0,41,-99.99,,,-99.99,,2013-03-14 04:11:00,
2013-03-13 23:33:00,24.0,4.0,-100.00,SW,230,6.0,9.0,41,-99.99,,,-99.99,,2013-03-14 04:33:00,
2013-03-13 23:42:00,24.0,4.0,-100.00,SW,230,6.0,9.0,41,-99.99,,,-99.99,,2013-03-14 04:42:00,
2013-03-13 23:53:00,24.0,4.0,-100.00,SW,230,6.0,9.0,41,-99.99,,,-99.99,,2013-03-14 04:53:00,